sensor_id;sensor_type;location;lat;lon;timestamp;P1;durP1;ratioP1;P2;durP2;ratioP2
57551;SDS011;43379;48.160;14.036;2022-10-16T00:02:19;8.73;;;8.13;;
57551;SDS011;43379;48.160;14.036;2022-10-16T00:04:45;7.87;;;7.27;;
57551;SDS011;43379;48.160;14.036;2022-10-16T00:07:11;8.40;;;7.80;;
57551;SDS011;43379;48.160;14.036;2022-10-16T00:09:37;8.37;;;7.77;;
57551;SDS011;43379;48.160;14.036;2022-10-16T00:12:02;8.60;;;7.90;;
57551;SDS011;43379;48.160;14.036;2022-10-16T00:14:29;8.00;;;7.40;;
57551;SDS011;43379;48.160;14.036;2022-10-16T00:16:55;8.03;;;6.33;;
57551;SDS011;43379;48.160;14.036;2022-10-16T00:19:21;7.03;;;6.53;;
57551;SDS011;43379;48.160;14.036;2022-10-16T00:21:46;6.90;;;6.27;;
57551;SDS011;43379;48.160;14.036;2022-10-16T00:24:12;7.80;;;6.30;;
57551;SDS011;43379;48.160;14.036;2022-10-16T00:26:38;7.40;;;6.80;;
57551;SDS011;43379;48.160;14.036;2022-10-16T00:29:04;7.07;;;6.50;;
57551;SDS011;43379;48.160;14.036;2022-10-16T00:31:30;7.30;;;6.80;;
57551;SDS011;43379;48.160;14.036;2022-10-16T00:33:56;7.77;;;7.17;;
57551;SDS011;43379;48.160;14.036;2022-10-16T00:36:23;7.33;;;6.63;;
57551;SDS011;43379;48.160;14.036;2022-10-16T00:38:51;7.17;;;6.53;;
57551;SDS011;43379;48.160;14.036;2022-10-16T00:41:21;7.63;;;7.13;;
57551;SDS011;43379;48.160;14.036;2022-10-16T00:43:55;7.13;;;6.30;;
57551;SDS011;43379;48.160;14.036;2022-10-16T00:49:01;7.47;;;6.97;;
57551;SDS011;43379;48.160;14.036;2022-10-16T00:51:46;7.37;;;6.87;;
57551;SDS011;43379;48.160;14.036;2022-10-16T00:54:14;7.03;;;6.57;;
57551;SDS011;43379;48.160;14.036;2022-10-16T00:56:52;7.70;;;7.03;;
57551;SDS011;43379;48.160;14.036;2022-10-16T00:59:20;17.17;;;10.00;;
57551;SDS011;43379;48.160;14.036;2022-10-16T01:02:04;10.53;;;9.53;;
57551;SDS011;43379;48.160;14.036;2022-10-16T01:04:42;9.90;;;9.10;;
57551;SDS011;43379;48.160;14.036;2022-10-16T01:15:16;11.53;;;10.33;;
57551;SDS011;43379;48.160;14.036;2022-10-16T01:17:55;12.40;;;9.67;;
57551;SDS011;43379;48.160;14.036;2022-10-16T01:20:29;10.80;;;9.60;;
57551;SDS011;43379;48.160;14.036;2022-10-16T01:23:01;10.50;;;9.30;;
57551;SDS011;43379;48.160;14.036;2022-10-16T01:28:26;9.90;;;9.00;;
57551;SDS011;43379;48.160;14.036;2022-10-16T01:30:57;10.83;;;9.90;;
57551;SDS011;43379;48.160;14.036;2022-10-16T01:33:26;10.47;;;9.37;;
57551;SDS011;43379;48.160;14.036;2022-10-16T01:36:07;11.30;;;10.07;;
57551;SDS011;43379;48.160;14.036;2022-10-16T01:38:39;11.43;;;10.50;;
57551;SDS011;43379;48.160;14.036;2022-10-16T01:41:08;11.03;;;9.87;;
57551;SDS011;43379;48.160;14.036;2022-10-16T01:46:37;13.40;;;10.40;;
57551;SDS011;43379;48.160;14.036;2022-10-16T01:49:06;13.30;;;9.90;;
57551;SDS011;43379;48.160;14.036;2022-10-16T01:51:34;9.57;;;8.73;;
57551;SDS011;43379;48.160;14.036;2022-10-16T01:54:02;9.27;;;8.67;;
57551;SDS011;43379;48.160;14.036;2022-10-16T01:56:30;10.30;;;9.40;;
57551;SDS011;43379;48.160;14.036;2022-10-16T01:58:58;9.43;;;8.80;;
57551;SDS011;43379;48.160;14.036;2022-10-16T02:01:29;10.27;;;9.30;;
57551;SDS011;43379;48.160;14.036;2022-10-16T02:04:01;22.90;;;12.20;;
57551;SDS011;43379;48.160;14.036;2022-10-16T02:06:32;24.60;;;11.03;;
57551;SDS011;43379;48.160;14.036;2022-10-16T02:08:59;25.97;;;13.10;;
57551;SDS011;43379;48.160;14.036;2022-10-16T02:11:25;12.00;;;10.90;;
57551;SDS011;43379;48.160;14.036;2022-10-16T02:13:52;41.43;;;14.80;;
57551;SDS011;43379;48.160;14.036;2022-10-16T02:16:42;14.90;;;11.40;;
57551;SDS011;43379;48.160;14.036;2022-10-16T02:19:10;26.00;;;11.40;;
57551;SDS011;43379;48.160;14.036;2022-10-16T02:26:57;12.10;;;11.30;;
57551;SDS011;43379;48.160;14.036;2022-10-16T02:29:37;10.63;;;9.83;;
57551;SDS011;43379;48.160;14.036;2022-10-16T02:34:38;23.20;;;11.40;;
57551;SDS011;43379;48.160;14.036;2022-10-16T02:37:05;10.50;;;9.80;;
57551;SDS011;43379;48.160;14.036;2022-10-16T02:39:32;11.53;;;10.33;;
57551;SDS011;43379;48.160;14.036;2022-10-16T02:41:59;10.83;;;10.10;;
57551;SDS011;43379;48.160;14.036;2022-10-16T02:44:24;16.90;;;10.93;;
57551;SDS011;43379;48.160;14.036;2022-10-16T02:46:50;11.40;;;10.50;;
57551;SDS011;43379;48.160;14.036;2022-10-16T02:49:16;9.80;;;9.10;;
57551;SDS011;43379;48.160;14.036;2022-10-16T02:51:42;20.23;;;9.60;;
57551;SDS011;43379;48.160;14.036;2022-10-16T02:54:07;11.90;;;9.87;;
57551;SDS011;43379;48.160;14.036;2022-10-16T02:56:33;9.80;;;9.10;;
57551;SDS011;43379;48.160;14.036;2022-10-16T02:58:59;9.30;;;8.50;;
57551;SDS011;43379;48.160;14.036;2022-10-16T03:01:24;9.17;;;8.50;;
57551;SDS011;43379;48.160;14.036;2022-10-16T03:03:50;9.33;;;8.70;;
57551;SDS011;43379;48.160;14.036;2022-10-16T03:06:16;9.50;;;8.80;;
57551;SDS011;43379;48.160;14.036;2022-10-16T03:08:41;10.57;;;9.47;;
57551;SDS011;43379;48.160;14.036;2022-10-16T03:11:07;9.90;;;9.07;;
57551;SDS011;43379;48.160;14.036;2022-10-16T03:13:33;9.30;;;8.70;;
57551;SDS011;43379;48.160;14.036;2022-10-16T03:15:58;7.83;;;7.33;;
57551;SDS011;43379;48.160;14.036;2022-10-16T03:18:24;8.37;;;7.87;;
57551;SDS011;43379;48.160;14.036;2022-10-16T03:20:49;24.63;;;12.30;;
57551;SDS011;43379;48.160;14.036;2022-10-16T03:23:15;17.23;;;9.53;;
57551;SDS011;43379;48.160;14.036;2022-10-16T03:25:41;10.53;;;9.73;;
57551;SDS011;43379;48.160;14.036;2022-10-16T03:28:06;9.67;;;8.77;;
57551;SDS011;43379;48.160;14.036;2022-10-16T03:30:32;9.47;;;8.80;;
57551;SDS011;43379;48.160;14.036;2022-10-16T03:32:58;9.97;;;9.27;;
57551;SDS011;43379;48.160;14.036;2022-10-16T03:35:24;9.53;;;8.63;;
57551;SDS011;43379;48.160;14.036;2022-10-16T03:37:50;7.80;;;7.20;;
57551;SDS011;43379;48.160;14.036;2022-10-16T03:40:16;7.90;;;7.20;;
57551;SDS011;43379;48.160;14.036;2022-10-16T03:42:42;7.60;;;7.10;;
57551;SDS011;43379;48.160;14.036;2022-10-16T03:45:08;6.70;;;6.30;;
57551;SDS011;43379;48.160;14.036;2022-10-16T03:47:35;9.00;;;6.83;;
57551;SDS011;43379;48.160;14.036;2022-10-16T03:50:01;14.00;;;6.70;;
57551;SDS011;43379;48.160;14.036;2022-10-16T03:52:26;8.83;;;5.80;;
57551;SDS011;43379;48.160;14.036;2022-10-16T03:54:52;12.37;;;6.77;;
57551;SDS011;43379;48.160;14.036;2022-10-16T03:57:18;7.10;;;6.60;;
57551;SDS011;43379;48.160;14.036;2022-10-16T03:59:43;10.00;;;6.80;;
57551;SDS011;43379;48.160;14.036;2022-10-16T04:02:09;17.23;;;6.03;;
57551;SDS011;43379;48.160;14.036;2022-10-16T04:04:35;7.40;;;6.40;;
57551;SDS011;43379;48.160;14.036;2022-10-16T04:07:00;6.63;;;6.03;;
57551;SDS011;43379;48.160;14.036;2022-10-16T04:09:26;6.77;;;6.30;;
57551;SDS011;43379;48.160;14.036;2022-10-16T04:11:52;7.00;;;6.50;;
57551;SDS011;43379;48.160;14.036;2022-10-16T04:14:17;14.33;;;6.20;;
57551;SDS011;43379;48.160;14.036;2022-10-16T04:16:43;12.30;;;6.27;;
57551;SDS011;43379;48.160;14.036;2022-10-16T04:19:09;6.03;;;5.30;;
57551;SDS011;43379;48.160;14.036;2022-10-16T04:21:35;9.00;;;7.10;;
57551;SDS011;43379;48.160;14.036;2022-10-16T04:24:02;6.83;;;6.30;;
57551;SDS011;43379;48.160;14.036;2022-10-16T04:26:28;9.43;;;6.93;;
57551;SDS011;43379;48.160;14.036;2022-10-16T04:28:54;7.87;;;7.27;;
57551;SDS011;43379;48.160;14.036;2022-10-16T04:31:20;28.00;;;7.73;;
57551;SDS011;43379;48.160;14.036;2022-10-16T04:33:46;8.90;;;8.00;;
57551;SDS011;43379;48.160;14.036;2022-10-16T04:36:11;9.60;;;8.10;;
57551;SDS011;43379;48.160;14.036;2022-10-16T04:38:37;7.57;;;6.87;;
57551;SDS011;43379;48.160;14.036;2022-10-16T04:41:04;8.13;;;7.20;;
57551;SDS011;43379;48.160;14.036;2022-10-16T04:43:31;7.20;;;6.70;;
57551;SDS011;43379;48.160;14.036;2022-10-16T04:45:57;7.80;;;7.30;;
57551;SDS011;43379;48.160;14.036;2022-10-16T04:48:22;7.50;;;6.93;;
57551;SDS011;43379;48.160;14.036;2022-10-16T04:50:48;8.37;;;7.87;;
57551;SDS011;43379;48.160;14.036;2022-10-16T04:53:14;9.70;;;8.90;;
57551;SDS011;43379;48.160;14.036;2022-10-16T04:55:40;10.47;;;9.57;;
57551;SDS011;43379;48.160;14.036;2022-10-16T04:58:06;10.67;;;9.67;;
57551;SDS011;43379;48.160;14.036;2022-10-16T05:00:32;10.47;;;9.47;;
57551;SDS011;43379;48.160;14.036;2022-10-16T05:02:58;10.40;;;9.50;;
57551;SDS011;43379;48.160;14.036;2022-10-16T05:05:25;10.10;;;9.10;;
57551;SDS011;43379;48.160;14.036;2022-10-16T05:07:51;17.97;;;8.83;;
57551;SDS011;43379;48.160;14.036;2022-10-16T05:10:17;24.10;;;9.10;;
57551;SDS011;43379;48.160;14.036;2022-10-16T05:12:43;9.43;;;8.83;;
57551;SDS011;43379;48.160;14.036;2022-10-16T05:15:09;10.00;;;9.20;;
57551;SDS011;43379;48.160;14.036;2022-10-16T05:17:35;13.10;;;7.97;;
57551;SDS011;43379;48.160;14.036;2022-10-16T05:20:01;8.57;;;7.80;;
57551;SDS011;43379;48.160;14.036;2022-10-16T05:22:28;9.80;;;7.90;;
57551;SDS011;43379;48.160;14.036;2022-10-16T05:24:54;8.10;;;7.30;;
57551;SDS011;43379;48.160;14.036;2022-10-16T05:27:19;7.77;;;7.23;;
57551;SDS011;43379;48.160;14.036;2022-10-16T05:29:46;7.13;;;6.70;;
57551;SDS011;43379;48.160;14.036;2022-10-16T05:32:13;6.97;;;6.50;;
57551;SDS011;43379;48.160;14.036;2022-10-16T05:34:39;6.23;;;5.83;;
57551;SDS011;43379;48.160;14.036;2022-10-16T05:37:05;7.30;;;6.77;;
57551;SDS011;43379;48.160;14.036;2022-10-16T05:39:30;6.60;;;6.20;;
57551;SDS011;43379;48.160;14.036;2022-10-16T05:41:56;8.17;;;6.13;;
57551;SDS011;43379;48.160;14.036;2022-10-16T05:44:22;6.10;;;5.70;;
57551;SDS011;43379;48.160;14.036;2022-10-16T05:46:48;6.07;;;5.60;;
57551;SDS011;43379;48.160;14.036;2022-10-16T05:49:14;5.37;;;5.07;;
57551;SDS011;43379;48.160;14.036;2022-10-16T05:51:40;11.37;;;5.80;;
57551;SDS011;43379;48.160;14.036;2022-10-16T05:54:06;6.70;;;6.10;;
57551;SDS011;43379;48.160;14.036;2022-10-16T05:56:32;6.50;;;6.10;;
57551;SDS011;43379;48.160;14.036;2022-10-16T05:58:57;8.27;;;6.50;;
57551;SDS011;43379;48.160;14.036;2022-10-16T06:01:23;11.47;;;7.37;;
57551;SDS011;43379;48.160;14.036;2022-10-16T06:03:50;7.60;;;7.10;;
57551;SDS011;43379;48.160;14.036;2022-10-16T06:06:17;6.27;;;5.87;;
57551;SDS011;43379;48.160;14.036;2022-10-16T06:08:45;8.33;;;6.57;;
57551;SDS011;43379;48.160;14.036;2022-10-16T06:11:12;38.50;;;10.57;;
57551;SDS011;43379;48.160;14.036;2022-10-16T06:13:39;7.90;;;7.40;;
57551;SDS011;43379;48.160;14.036;2022-10-16T06:16:07;11.87;;;8.37;;
57551;SDS011;43379;48.160;14.036;2022-10-16T06:18:34;18.93;;;9.00;;
57551;SDS011;43379;48.160;14.036;2022-10-16T06:21:06;8.27;;;7.57;;
57551;SDS011;43379;48.160;14.036;2022-10-16T06:23:36;9.07;;;8.13;;
57551;SDS011;43379;48.160;14.036;2022-10-16T06:26:12;10.93;;;7.33;;
57551;SDS011;43379;48.160;14.036;2022-10-16T06:28:39;19.93;;;8.60;;
57551;SDS011;43379;48.160;14.036;2022-10-16T06:31:05;7.90;;;7.13;;
57551;SDS011;43379;48.160;14.036;2022-10-16T06:33:33;7.67;;;7.13;;
57551;SDS011;43379;48.160;14.036;2022-10-16T06:36:02;8.27;;;7.30;;
57551;SDS011;43379;48.160;14.036;2022-10-16T06:38:29;11.30;;;7.73;;
57551;SDS011;43379;48.160;14.036;2022-10-16T06:40:55;7.53;;;7.03;;
57551;SDS011;43379;48.160;14.036;2022-10-16T06:43:21;12.13;;;8.40;;
57551;SDS011;43379;48.160;14.036;2022-10-16T06:45:50;7.90;;;7.30;;
57551;SDS011;43379;48.160;14.036;2022-10-16T06:48:20;7.50;;;7.00;;
57551;SDS011;43379;48.160;14.036;2022-10-16T06:50:55;9.50;;;8.80;;
57551;SDS011;43379;48.160;14.036;2022-10-16T06:53:34;8.77;;;7.63;;
57551;SDS011;43379;48.160;14.036;2022-10-16T06:56:07;12.10;;;8.40;;
57551;SDS011;43379;48.160;14.036;2022-10-16T06:58:33;10.60;;;8.20;;
57551;SDS011;43379;48.160;14.036;2022-10-16T07:00:59;11.80;;;8.93;;
57551;SDS011;43379;48.160;14.036;2022-10-16T07:03:25;8.70;;;7.97;;
57551;SDS011;43379;48.160;14.036;2022-10-16T07:05:50;20.93;;;10.40;;
57551;SDS011;43379;48.160;14.036;2022-10-16T07:08:16;11.40;;;10.47;;
57551;SDS011;43379;48.160;14.036;2022-10-16T07:10:42;18.50;;;13.80;;
57551;SDS011;43379;48.160;14.036;2022-10-16T07:13:08;12.10;;;11.00;;
57551;SDS011;43379;48.160;14.036;2022-10-16T07:15:33;12.30;;;11.23;;
57551;SDS011;43379;48.160;14.036;2022-10-16T07:17:59;12.80;;;11.50;;
57551;SDS011;43379;48.160;14.036;2022-10-16T07:20:25;10.93;;;10.03;;
57551;SDS011;43379;48.160;14.036;2022-10-16T07:22:51;11.03;;;10.03;;
57551;SDS011;43379;48.160;14.036;2022-10-16T07:25:17;10.60;;;9.57;;
57551;SDS011;43379;48.160;14.036;2022-10-16T07:27:43;8.27;;;7.67;;
57551;SDS011;43379;48.160;14.036;2022-10-16T07:30:08;8.40;;;7.70;;
57551;SDS011;43379;48.160;14.036;2022-10-16T07:32:34;7.90;;;7.10;;
57551;SDS011;43379;48.160;14.036;2022-10-16T07:35:00;6.90;;;6.40;;
57551;SDS011;43379;48.160;14.036;2022-10-16T07:37:26;7.13;;;6.57;;
57551;SDS011;43379;48.160;14.036;2022-10-16T07:39:51;6.57;;;5.97;;
57551;SDS011;43379;48.160;14.036;2022-10-16T07:42:17;6.87;;;6.37;;
57551;SDS011;43379;48.160;14.036;2022-10-16T07:44:42;7.10;;;5.80;;
57551;SDS011;43379;48.160;14.036;2022-10-16T07:47:08;9.63;;;6.50;;
57551;SDS011;43379;48.160;14.036;2022-10-16T07:49:34;6.50;;;6.00;;
57551;SDS011;43379;48.160;14.036;2022-10-16T07:51:59;7.37;;;6.77;;
57551;SDS011;43379;48.160;14.036;2022-10-16T07:54:25;7.43;;;6.50;;
57551;SDS011;43379;48.160;14.036;2022-10-16T07:56:51;9.57;;;6.57;;
57551;SDS011;43379;48.160;14.036;2022-10-16T07:59:17;6.70;;;6.10;;
57551;SDS011;43379;48.160;14.036;2022-10-16T08:01:42;6.73;;;6.00;;
57551;SDS011;43379;48.160;14.036;2022-10-16T08:04:08;7.30;;;6.40;;
57551;SDS011;43379;48.160;14.036;2022-10-16T08:06:36;6.10;;;5.60;;
57551;SDS011;43379;48.160;14.036;2022-10-16T08:09:04;5.30;;;4.90;;
57551;SDS011;43379;48.160;14.036;2022-10-16T08:11:31;6.10;;;5.70;;
57551;SDS011;43379;48.160;14.036;2022-10-16T08:13:57;6.13;;;5.30;;
57551;SDS011;43379;48.160;14.036;2022-10-16T08:16:23;6.57;;;6.00;;
57551;SDS011;43379;48.160;14.036;2022-10-16T08:18:48;6.33;;;5.83;;
57551;SDS011;43379;48.160;14.036;2022-10-16T08:21:16;6.00;;;5.60;;
57551;SDS011;43379;48.160;14.036;2022-10-16T08:23:44;5.77;;;5.30;;
57551;SDS011;43379;48.160;14.036;2022-10-16T08:26:10;6.83;;;6.17;;
57551;SDS011;43379;48.160;14.036;2022-10-16T08:28:37;6.67;;;6.17;;
57551;SDS011;43379;48.160;14.036;2022-10-16T08:31:07;6.77;;;6.27;;
57551;SDS011;43379;48.160;14.036;2022-10-16T08:33:37;7.40;;;6.80;;
57551;SDS011;43379;48.160;14.036;2022-10-16T08:36:05;6.47;;;6.00;;
57551;SDS011;43379;48.160;14.036;2022-10-16T08:38:32;6.90;;;6.30;;
57551;SDS011;43379;48.160;14.036;2022-10-16T08:41:08;6.70;;;6.20;;
57551;SDS011;43379;48.160;14.036;2022-10-16T08:46:19;7.43;;;6.83;;
57551;SDS011;43379;48.160;14.036;2022-10-16T08:49:02;7.67;;;6.97;;
57551;SDS011;43379;48.160;14.036;2022-10-16T08:51:35;8.83;;;7.10;;
57551;SDS011;43379;48.160;14.036;2022-10-16T08:54:05;8.10;;;7.50;;
57551;SDS011;43379;48.160;14.036;2022-10-16T08:56:40;7.83;;;7.27;;
57551;SDS011;43379;48.160;14.036;2022-10-16T08:59:06;7.30;;;6.80;;
57551;SDS011;43379;48.160;14.036;2022-10-16T09:01:45;7.60;;;7.10;;
57551;SDS011;43379;48.160;14.036;2022-10-16T09:06:53;8.07;;;7.43;;
57551;SDS011;43379;48.160;14.036;2022-10-16T09:12:18;6.73;;;6.03;;
57551;SDS011;43379;48.160;14.036;2022-10-16T09:15:01;9.30;;;6.90;;
57551;SDS011;43379;48.160;14.036;2022-10-16T09:17:59;6.80;;;6.20;;
57551;SDS011;43379;48.160;14.036;2022-10-16T09:23:25;7.77;;;7.03;;
57551;SDS011;43379;48.160;14.036;2022-10-16T09:25:53;6.43;;;5.93;;
57551;SDS011;43379;48.160;14.036;2022-10-16T09:28:20;6.53;;;6.13;;
57551;SDS011;43379;48.160;14.036;2022-10-16T09:30:46;5.77;;;5.37;;
57551;SDS011;43379;48.160;14.036;2022-10-16T09:33:16;5.93;;;5.40;;
57551;SDS011;43379;48.160;14.036;2022-10-16T09:35:45;5.70;;;5.30;;
57551;SDS011;43379;48.160;14.036;2022-10-16T09:41:01;4.90;;;4.60;;
57551;SDS011;43379;48.160;14.036;2022-10-16T09:46:06;6.60;;;4.63;;
57551;SDS011;43379;48.160;14.036;2022-10-16T09:48:37;4.80;;;4.47;;
57551;SDS011;43379;48.160;14.036;2022-10-16T09:51:27;4.73;;;4.33;;
57551;SDS011;43379;48.160;14.036;2022-10-16T09:54:10;4.70;;;3.90;;
57551;SDS011;43379;48.160;14.036;2022-10-16T09:56:41;5.10;;;4.70;;
57551;SDS011;43379;48.160;14.036;2022-10-16T09:59:11;4.73;;;4.37;;
57551;SDS011;43379;48.160;14.036;2022-10-16T10:01:39;4.33;;;3.93;;
57551;SDS011;43379;48.160;14.036;2022-10-16T10:04:07;5.40;;;4.30;;
57551;SDS011;43379;48.160;14.036;2022-10-16T10:06:44;4.90;;;4.40;;
57551;SDS011;43379;48.160;14.036;2022-10-16T10:09:21;6.10;;;5.20;;
57551;SDS011;43379;48.160;14.036;2022-10-16T10:12:00;5.37;;;4.87;;
57551;SDS011;43379;48.160;14.036;2022-10-16T10:15:10;4.60;;;4.30;;
57551;SDS011;43379;48.160;14.036;2022-10-16T10:17:18;8.00;;;4.47;;
57551;SDS011;43379;48.160;14.036;2022-10-16T10:19:53;4.40;;;4.10;;
57551;SDS011;43379;48.160;14.036;2022-10-16T10:22:22;5.20;;;4.80;;
57551;SDS011;43379;48.160;14.036;2022-10-16T10:25:07;4.80;;;4.40;;
57551;SDS011;43379;48.160;14.036;2022-10-16T10:30:22;6.27;;;5.70;;
57551;SDS011;43379;48.160;14.036;2022-10-16T10:33:05;5.50;;;5.10;;
57551;SDS011;43379;48.160;14.036;2022-10-16T10:38:22;7.00;;;5.40;;
57551;SDS011;43379;48.160;14.036;2022-10-16T10:41:03;5.10;;;3.90;;
57551;SDS011;43379;48.160;14.036;2022-10-16T10:46:04;5.37;;;4.87;;
57551;SDS011;43379;48.160;14.036;2022-10-16T10:54:19;4.80;;;3.43;;
57551;SDS011;43379;48.160;14.036;2022-10-16T10:56:51;4.20;;;3.83;;
57551;SDS011;43379;48.160;14.036;2022-10-16T10:59:37;3.60;;;3.30;;
57551;SDS011;43379;48.160;14.036;2022-10-16T11:04:47;3.57;;;3.27;;
57551;SDS011;43379;48.160;14.036;2022-10-16T11:07:28;4.00;;;3.27;;
57551;SDS011;43379;48.160;14.036;2022-10-16T11:10:04;3.13;;;2.60;;
57551;SDS011;43379;48.160;14.036;2022-10-16T11:13:20;3.00;;;2.70;;
57551;SDS011;43379;48.160;14.036;2022-10-16T11:15:57;3.40;;;2.97;;
57551;SDS011;43379;48.160;14.036;2022-10-16T11:20:52;2.93;;;2.60;;
57551;SDS011;43379;48.160;14.036;2022-10-16T11:23:23;4.33;;;3.20;;
57551;SDS011;43379;48.160;14.036;2022-10-16T11:26:19;3.80;;;3.07;;
57551;SDS011;43379;48.160;14.036;2022-10-16T11:28:48;3.30;;;2.63;;
57551;SDS011;43379;48.160;14.036;2022-10-16T11:31:28;4.60;;;3.10;;
57551;SDS011;43379;48.160;14.036;2022-10-16T11:36:45;3.63;;;3.33;;
57551;SDS011;43379;48.160;14.036;2022-10-16T11:47:35;3.20;;;2.90;;
57551;SDS011;43379;48.160;14.036;2022-10-16T11:55:53;5.23;;;2.80;;
57551;SDS011;43379;48.160;14.036;2022-10-16T12:03:42;3.63;;;2.80;;
57551;SDS011;43379;48.160;14.036;2022-10-16T12:09:26;4.43;;;3.30;;
57551;SDS011;43379;48.160;14.036;2022-10-16T12:11:54;4.57;;;2.70;;
57551;SDS011;43379;48.160;14.036;2022-10-16T12:16:53;2.67;;;2.43;;
57551;SDS011;43379;48.160;14.036;2022-10-16T12:19:28;2.50;;;2.30;;
57551;SDS011;43379;48.160;14.036;2022-10-16T12:21:59;4.57;;;2.70;;
57551;SDS011;43379;48.160;14.036;2022-10-16T12:24:29;2.73;;;2.53;;
57551;SDS011;43379;48.160;14.036;2022-10-16T12:26:58;2.73;;;2.53;;
57551;SDS011;43379;48.160;14.036;2022-10-16T12:29:37;3.53;;;3.00;;
57551;SDS011;43379;48.160;14.036;2022-10-16T12:32:05;3.70;;;2.73;;
57551;SDS011;43379;48.160;14.036;2022-10-16T12:34:49;3.20;;;2.50;;
57551;SDS011;43379;48.160;14.036;2022-10-16T12:37:29;2.60;;;2.40;;
57551;SDS011;43379;48.160;14.036;2022-10-16T12:39:59;2.90;;;2.70;;
57551;SDS011;43379;48.160;14.036;2022-10-16T12:42:36;3.60;;;2.70;;
57551;SDS011;43379;48.160;14.036;2022-10-16T12:45:12;4.90;;;2.80;;
57551;SDS011;43379;48.160;14.036;2022-10-16T12:48:02;4.00;;;2.83;;
57551;SDS011;43379;48.160;14.036;2022-10-16T12:50:43;3.50;;;2.30;;
57551;SDS011;43379;48.160;14.036;2022-10-16T12:53:19;4.30;;;2.87;;
57551;SDS011;43379;48.160;14.036;2022-10-16T12:56:03;2.67;;;2.30;;
57551;SDS011;43379;48.160;14.036;2022-10-16T13:04:54;6.33;;;2.30;;
57551;SDS011;43379;48.160;14.036;2022-10-16T13:07:41;2.80;;;2.23;;
57551;SDS011;43379;48.160;14.036;2022-10-16T13:13:19;3.40;;;2.33;;
57551;SDS011;43379;48.160;14.036;2022-10-16T13:16:17;3.23;;;2.10;;
57551;SDS011;43379;48.160;14.036;2022-10-16T13:19:08;2.00;;;1.80;;
57551;SDS011;43379;48.160;14.036;2022-10-16T13:26:57;3.00;;;2.33;;
57551;SDS011;43379;48.160;14.036;2022-10-16T13:29:30;3.60;;;2.30;;
57551;SDS011;43379;48.160;14.036;2022-10-16T13:31:57;2.93;;;2.30;;
57551;SDS011;43379;48.160;14.036;2022-10-16T13:34:25;4.50;;;2.93;;
57551;SDS011;43379;48.160;14.036;2022-10-16T13:36:52;3.50;;;2.53;;
57551;SDS011;43379;48.160;14.036;2022-10-16T13:44:53;6.17;;;2.63;;
57551;SDS011;43379;48.160;14.036;2022-10-16T13:47:21;3.70;;;2.60;;
57551;SDS011;43379;48.160;14.036;2022-10-16T13:50:09;5.07;;;3.23;;
57551;SDS011;43379;48.160;14.036;2022-10-16T13:52:37;4.03;;;2.90;;
57551;SDS011;43379;48.160;14.036;2022-10-16T13:55:24;2.40;;;2.20;;
57551;SDS011;43379;48.160;14.036;2022-10-16T13:57:49;2.57;;;2.30;;
57551;SDS011;43379;48.160;14.036;2022-10-16T14:00:19;3.27;;;2.50;;
57551;SDS011;43379;48.160;14.036;2022-10-16T14:02:57;3.07;;;2.20;;
57551;SDS011;43379;48.160;14.036;2022-10-16T14:05:29;3.33;;;2.77;;
57551;SDS011;43379;48.160;14.036;2022-10-16T14:07:55;4.40;;;2.70;;
57551;SDS011;43379;48.160;14.036;2022-10-16T14:10:29;4.40;;;2.40;;
57551;SDS011;43379;48.160;14.036;2022-10-16T14:13:00;2.53;;;2.33;;
57551;SDS011;43379;48.160;14.036;2022-10-16T14:15:28;6.33;;;2.30;;
57551;SDS011;43379;48.160;14.036;2022-10-16T14:17:56;2.73;;;2.23;;
57551;SDS011;43379;48.160;14.036;2022-10-16T14:20:28;2.60;;;2.40;;
57551;SDS011;43379;48.160;14.036;2022-10-16T14:25:43;4.03;;;2.50;;
57551;SDS011;43379;48.160;14.036;2022-10-16T14:30:48;3.27;;;2.37;;
57551;SDS011;43379;48.160;14.036;2022-10-16T14:33:25;2.87;;;2.50;;
57551;SDS011;43379;48.160;14.036;2022-10-16T14:36:11;2.53;;;2.10;;
57551;SDS011;43379;48.160;14.036;2022-10-16T14:38:40;3.53;;;2.37;;
57551;SDS011;43379;48.160;14.036;2022-10-16T14:41:08;2.93;;;2.40;;
57551;SDS011;43379;48.160;14.036;2022-10-16T14:46:15;3.27;;;2.17;;
57551;SDS011;43379;48.160;14.036;2022-10-16T14:48:48;2.80;;;2.60;;
57551;SDS011;43379;48.160;14.036;2022-10-16T14:51:19;3.00;;;2.33;;
57551;SDS011;43379;48.160;14.036;2022-10-16T14:53:45;3.17;;;2.87;;
57551;SDS011;43379;48.160;14.036;2022-10-16T14:56:18;3.60;;;3.30;;
57551;SDS011;43379;48.160;14.036;2022-10-16T14:58:46;3.33;;;3.03;;
57551;SDS011;43379;48.160;14.036;2022-10-16T15:01:13;3.40;;;2.60;;
57551;SDS011;43379;48.160;14.036;2022-10-16T15:03:39;2.70;;;2.50;;
57551;SDS011;43379;48.160;14.036;2022-10-16T15:06:09;3.30;;;3.00;;
57551;SDS011;43379;48.160;14.036;2022-10-16T15:08:36;4.73;;;2.60;;
57551;SDS011;43379;48.160;14.036;2022-10-16T15:11:02;3.50;;;2.73;;
57551;SDS011;43379;48.160;14.036;2022-10-16T15:13:29;2.60;;;2.40;;
57551;SDS011;43379;48.160;14.036;2022-10-16T15:15:54;3.80;;;2.90;;
57551;SDS011;43379;48.160;14.036;2022-10-16T15:18:20;3.67;;;2.60;;
57551;SDS011;43379;48.160;14.036;2022-10-16T15:20:50;3.67;;;2.80;;
57551;SDS011;43379;48.160;14.036;2022-10-16T15:23:17;2.87;;;2.67;;
57551;SDS011;43379;48.160;14.036;2022-10-16T15:25:46;3.47;;;3.17;;
57551;SDS011;43379;48.160;14.036;2022-10-16T15:28:15;8.60;;;3.10;;
57551;SDS011;43379;48.160;14.036;2022-10-16T15:30:41;3.30;;;3.03;;
57551;SDS011;43379;48.160;14.036;2022-10-16T15:33:14;4.17;;;2.80;;
57551;SDS011;43379;48.160;14.036;2022-10-16T15:35:41;7.37;;;3.77;;
57551;SDS011;43379;48.160;14.036;2022-10-16T15:38:11;5.00;;;4.60;;
57551;SDS011;43379;48.160;14.036;2022-10-16T15:40:38;6.47;;;5.10;;
57551;SDS011;43379;48.160;14.036;2022-10-16T15:43:05;6.70;;;6.00;;
57551;SDS011;43379;48.160;14.036;2022-10-16T15:45:30;5.70;;;5.20;;
57551;SDS011;43379;48.160;14.036;2022-10-16T15:47:56;5.97;;;4.80;;
57551;SDS011;43379;48.160;14.036;2022-10-16T15:50:22;5.73;;;4.33;;
57551;SDS011;43379;48.160;14.036;2022-10-16T15:52:48;4.50;;;4.10;;
57551;SDS011;43379;48.160;14.036;2022-10-16T15:55:15;4.43;;;4.03;;
57551;SDS011;43379;48.160;14.036;2022-10-16T15:57:42;4.50;;;4.10;;
57551;SDS011;43379;48.160;14.036;2022-10-16T16:00:09;4.70;;;3.80;;
57551;SDS011;43379;48.160;14.036;2022-10-16T16:02:41;4.87;;;4.10;;
57551;SDS011;43379;48.160;14.036;2022-10-16T16:05:08;4.80;;;3.97;;
57551;SDS011;43379;48.160;14.036;2022-10-16T16:07:35;4.60;;;3.73;;
57551;SDS011;43379;48.160;14.036;2022-10-16T16:10:03;5.13;;;4.63;;
57551;SDS011;43379;48.160;14.036;2022-10-16T16:12:31;6.07;;;4.20;;
57551;SDS011;43379;48.160;14.036;2022-10-16T16:14:57;5.93;;;4.17;;
57551;SDS011;43379;48.160;14.036;2022-10-16T16:17:23;7.93;;;5.20;;
57551;SDS011;43379;48.160;14.036;2022-10-16T16:19:49;5.43;;;4.90;;
57551;SDS011;43379;48.160;14.036;2022-10-16T16:22:15;6.77;;;4.80;;
57551;SDS011;43379;48.160;14.036;2022-10-16T16:24:41;10.17;;;4.90;;
57551;SDS011;43379;48.160;14.036;2022-10-16T16:27:07;6.70;;;4.70;;
57551;SDS011;43379;48.160;14.036;2022-10-16T16:29:34;5.63;;;4.17;;
57551;SDS011;43379;48.160;14.036;2022-10-16T16:32:00;5.03;;;4.53;;
57551;SDS011;43379;48.160;14.036;2022-10-16T16:34:27;5.40;;;3.70;;
57551;SDS011;43379;48.160;14.036;2022-10-16T16:36:53;6.03;;;4.50;;
57551;SDS011;43379;48.160;14.036;2022-10-16T16:39:20;5.30;;;4.67;;
57551;SDS011;43379;48.160;14.036;2022-10-16T16:41:45;4.97;;;4.23;;